Time;durP1;ratioP1;P1;durP2;ratioP2;P2;SDS_P1;SDS_P2;PMS_P1;PMS_P2;Temp;Humidity;BMP_temperature;BMP_pressure;BME280_temperature;BME280_humidity;BME280_pressure;Samples;Min_cycle;Max_cycle;Signal;HPM_P1;HPM_P2
2021/04/04 00:01:26;;;;;;;7.40;4.82;;;3.90;37.90;;;;;;6301477;22;20157;-80
2021/04/04 00:03:53;;;;;;;14.07;4.85;;;3.90;38.40;;;;;;6303050;22;20232;-80
2021/04/04 00:06:20;;;;;;;7.80;4.75;;;3.90;38.20;;;;;;6302979;22;20236;-80
2021/04/04 00:13:06;;;;;;;6.30;5.07;;;3.80;38.50;;;;;;6116588;23;20169;-80
2021/04/04 00:15:42;;;;;;;7.30;4.50;;;3.80;38.00;;;;;;6061741;23;20170;-79
2021/04/04 00:58:48;;;;;;;6.97;4.82;;;3.00;44.10;;;;;;5845816;24;20410;-80
2021/04/04 01:01:59;;;;;;;6.13;5.07;;;3.00;44.20;;;;;;5931569;24;20195;-81
2021/04/04 02:20:47;;;;;;;7.57;4.57;;;2.30;48.30;;;;;;5966988;23;20171;-80
2021/04/04 02:23:48;;;;;;;6.93;5.30;;;2.20;48.20;;;;;;6038598;23;20242;-79
2021/04/04 02:29:10;;;;;;;7.18;5.00;;;2.10;49.20;;;;;;6039374;23;20193;-81
2021/04/04 02:31:44;;;;;;;10.38;5.25;;;2.00;49.30;;;;;;6039275;23;20178;-80
2021/04/04 02:34:28;;;;;;;7.18;4.85;;;2.00;50.60;;;;;;6079426;23;20619;-79
2021/04/04 02:37:23;;;;;;;7.75;4.40;;;1.90;50.30;;;;;;6137539;23;20693;-80
2021/04/04 02:39:59;;;;;;;9.82;5.35;;;2.00;50.60;;;;;;6137612;23;20168;-79
2021/04/04 02:45:24;;;;;;;6.47;4.28;;;1.90;51.00;;;;;;6136350;23;20229;-80
2021/04/04 02:48:09;;;;;;;7.75;5.35;;;1.80;51.80;;;;;;6109160;23;20737;-80
2021/04/04 02:50:40;;;;;;;8.07;4.80;;;1.80;52.60;;;;;;6112778;23;20196;-79
2021/04/04 02:53:18;;;;;;;6.00;4.53;;;1.80;52.60;;;;;;6129418;23;20558;-79
2021/04/04 02:55:54;;;;;;;7.47;4.40;;;1.80;52.60;;;;;;6130920;23;20183;-80
2021/04/04 02:58:23;;;;;;;6.05;4.45;;;1.80;52.60;;;;;;6307416;22;20195;-85
2021/04/04 03:00:52;;;;;;;7.07;4.57;;;1.80;52.60;;;;;;6335334;22;20160;-86
2021/04/04 03:03:21;;;;;;;7.40;4.80;;;1.90;53.30;;;;;;6334628;22;20207;-85
2021/04/04 03:05:48;;;;;;;5.53;4.10;;;1.90;51.50;;;;;;6334807;22;20156;-85
2021/04/04 03:08:18;;;;;;;4.85;4.10;;;2.00;51.10;;;;;;6307301;22;20205;-84
2021/04/04 03:10:50;;;;;;;8.98;4.45;;;1.90;50.70;;;;;;6301523;22;20186;-84
2021/04/04 03:13:18;;;;;;;7.40;4.10;;;1.90;50.90;;;;;;6303037;22;20176;-84
2021/04/04 03:15:46;;;;;;;6.40;4.30;;;2.00;50.80;;;;;;6304131;22;20193;-84
2021/04/04 03:18:12;;;;;;;8.15;3.95;;;2.00;50.20;;;;;;6303898;22;20231;-85
2021/04/04 03:20:39;;;;;;;8.45;4.45;;;2.00;49.60;;;;;;6303961;22;20185;-81
2021/04/04 03:23:06;;;;;;;5.28;3.95;;;1.90;49.80;;;;;;6303666;22;20356;-85
2021/04/04 03:25:34;;;;;;;5.47;4.20;;;1.90;49.90;;;;;;6303636;22;20157;-85
2021/04/04 03:28:01;;;;;;;5.72;4.22;;;1.80;50.20;;;;;;6303592;22;20185;-85
2021/04/04 03:30:43;;;;;;;6.80;3.88;;;1.80;50.70;;;;;;6303413;22;20157;-85
2021/04/04 03:33:13;;;;;;;5.65;3.70;;;1.80;51.50;;;;;;6300432;22;20324;-80
2021/04/04 03:35:40;;;;;;;8.45;4.40;;;1.70;51.00;;;;;;6303566;22;20157;-83
2021/04/04 03:38:09;;;;;;;4.53;3.40;;;1.60;51.30;;;;;;6302826;22;20197;-84
2021/04/04 03:40:37;;;;;;;4.70;3.83;;;1.60;51.60;;;;;;6300418;22;20184;-78
2021/04/04 03:43:09;;;;;;;7.57;4.25;;;1.60;52.40;;;;;;6302808;22;20181;-85
2021/04/04 03:45:35;;;;;;;8.88;3.78;;;1.60;52.40;;;;;;6303608;22;20151;-85
2021/04/04 03:48:03;;;;;;;5.10;4.20;;;1.60;52.40;;;;;;6303640;22;20185;-84
2021/04/04 03:50:30;;;;;;;6.40;3.85;;;1.60;52.40;;;;;;6303671;22;20165;-85
2021/04/04 03:52:58;;;;;;;6.38;4.00;;;1.60;52.40;;;;;;6303194;22;20178;-85
2021/04/04 03:55:26;;;;;;;6.00;3.83;;;1.60;52.40;;;;;;6300969;22;20165;-81
2021/04/04 03:57:54;;;;;;;5.68;3.70;;;1.60;52.40;;;;;;6291141;22;20678;-82
2021/04/04 04:00:24;;;;;;;5.07;4.20;;;1.60;52.40;;;;;;6282731;22;20236;-79
2021/04/04 04:02:51;;;;;;;7.30;4.47;;;1.60;52.40;;;;;;6280753;22;20184;-77
2021/04/04 04:05:22;;;;;;;7.65;3.88;;;1.60;52.40;;;;;;6280628;22;20180;-77
2021/04/04 04:07:49;;;;;;;3.95;3.55;;;1.60;52.40;;;;;;6281975;22;20204;-77
2021/04/04 04:10:17;;;;;;;5.95;3.20;;;1.60;52.40;;;;;;6283003;22;20187;-78
2021/04/04 04:12:44;;;;;;;5.20;3.70;;;1.60;52.40;;;;;;6284229;22;20173;-78
2021/04/04 04:15:14;;;;;;;4.78;3.58;;;1.60;52.40;;;;;;6281439;22;20257;-81
2021/04/04 04:17:42;;;;;;;4.82;4.13;;;1.60;52.40;;;;;;6280341;22;20213;-78
2021/04/04 04:20:10;;;;;;;4.63;3.28;;;1.60;52.40;;;;;;6279593;22;20180;-78
2021/04/04 04:22:38;;;;;;;7.28;4.28;;;1.50;52.30;;;;;;6279359;22;20256;-79
2021/04/04 04:25:06;;;;;;;5.05;3.65;;;1.50;52.30;;;;;;6295269;22;20189;-85
2021/04/04 04:27:33;;;;;;;12.93;4.05;;;1.50;52.30;;;;;;6305218;22;20196;-83
2021/04/04 04:30:03;;;;;;;4.82;3.55;;;1.40;52.20;;;;;;6304435;22;20188;-84
2021/04/04 04:32:32;;;;;;;4.53;3.80;;;1.40;52.60;;;;;;6305519;22;20165;-84
2021/04/04 04:35:02;;;;;;;3.65;3.35;;;1.40;52.60;;;;;;6303323;22;20169;-85
2021/04/04 04:37:30;;;;;;;6.20;4.03;;;1.30;52.50;;;;;;6304413;22;20280;-83
2021/04/04 04:39:58;;;;;;;5.57;3.45;;;1.30;53.00;;;;;;6300972;22;20519;-76
2021/04/04 04:42:25;;;;;;;6.38;3.67;;;1.20;53.10;;;;;;6284276;22;20293;-81
2021/04/04 04:44:52;;;;;;;6.32;3.28;;;1.30;54.10;;;;;;6284098;22;20224;-80
2021/04/04 04:47:20;;;;;;;4.57;3.60;;;1.20;53.70;;;;;;6281702;22;20496;-77
2021/04/04 04:49:47;;;;;;;7.65;3.67;;;1.30;53.80;;;;;;6283641;22;20214;-82
2021/04/04 04:52:14;;;;;;;9.15;4.68;;;1.20;54.00;;;;;;6286178;22;20169;-81
2021/04/04 04:54:42;;;;;;;4.90;3.50;;;1.10;54.40;;;;;;6287689;22;20188;-78
2021/04/04 04:57:10;;;;;;;4.95;3.90;;;1.20;54.80;;;;;;6287080;22;20209;-78
2021/04/04 04:59:38;;;;;;;4.65;3.67;;;1.20;55.30;;;;;;6283974;22;20224;-78
2021/04/04 05:02:05;;;;;;;6.63;4.07;;;1.10;55.80;;;;;;6284613;22;20565;-79
2021/04/04 05:04:32;;;;;;;9.10;4.63;;;1.10;55.80;;;;;;6286837;22;20197;-77
2021/04/04 05:07:00;;;;;;;6.55;3.60;;;1.10;55.80;;;;;;6281525;22;20200;-78
2021/04/04 05:09:28;;;;;;;5.13;3.90;;;1.20;56.10;;;;;;6279297;22;20208;-78
2021/04/04 05:11:56;;;;;;;4.22;3.33;;;1.20;55.30;;;;;;6278874;22;20178;-77
2021/04/04 05:14:23;;;;;;;6.53;3.67;;;1.30;54.90;;;;;;6278710;22;20252;-80
2021/04/04 05:16:52;;;;;;;6.60;4.25;;;1.40;55.00;;;;;;6284138;22;20201;-80
2021/04/04 05:19:19;;;;;;;4.20;3.20;;;1.40;54.50;;;;;;6281377;22;20180;-80
2021/04/04 05:21:45;;;;;;;5.65;4.05;;;1.50;53.30;;;;;;6284925;22;20177;-80
2021/04/04 05:24:14;;;;;;;6.15;4.15;;;1.50;53.20;;;;;;6291885;22;20193;-80
2021/04/04 05:26:42;;;;;;;5.57;3.50;;;1.70;52.70;;;;;;6282550;22;20197;-79
2021/04/04 05:29:11;;;;;;;6.78;3.78;;;1.90;52.60;;;;;;6280594;22;20182;-81
2021/04/04 05:31:44;;;;;;;8.38;3.72;;;2.10;52.20;;;;;;6278796;22;20192;-78
2021/04/04 05:34:12;;;;;;;4.93;3.30;;;2.30;50.70;;;;;;6281298;22;20596;-79
2021/04/04 05:36:50;;;;;;;4.07;3.35;;;2.50;49.70;;;;;;6276603;22;20537;-78
2021/04/04 05:39:18;;;;;;;6.68;3.67;;;2.70;48.20;;;;;;6277903;22;20703;-77
2021/04/04 05:41:49;;;;;;;7.13;3.50;;;3.00;47.30;;;;;;6277444;22;20181;-78
2021/04/04 05:44:18;;;;;;;10.77;3.75;;;3.40;45.90;;;;;;6277336;22;20185;-78
2021/04/04 05:46:50;;;;;;;8.02;3.42;;;3.70;44.70;;;;;;6277314;22;20712;-78
2021/04/04 05:49:18;;;;;;;6.57;3.67;;;4.10;43.80;;;;;;6282302;22;20181;-78
2021/04/04 05:51:54;;;;;;;3.78;3.25;;;4.50;41.30;;;;;;6286612;22;20673;-78
2021/04/04 05:54:50;;;;;;;4.65;3.47;;;4.60;40.40;;;;;;6279391;22;20209;-79
2021/04/04 05:57:20;;;;;;;6.18;3.42;;;4.60;40.40;;;;;;6276918;22;20212;-81
2021/04/04 05:59:48;;;;;;;5.95;3.55;;;4.70;39.80;;;;;;6278330;22;20185;-79
2021/04/04 06:02:43;;;;;;;6.68;4.43;;;5.00;39.30;;;;;;6278747;22;20188;-79
2021/04/04 06:05:37;;;;;;;6.25;3.65;;;5.10;38.10;;;;;;6276606;22;20571;-79
2021/04/04 06:08:29;;;;;;;5.82;3.53;;;5.00;37.70;;;;;;6275950;22;20277;-78
2021/04/04 06:11:07;;;;;;;5.22;4.10;;;4.30;39.40;;;;;;6276681;22;20177;-77
2021/04/04 06:13:46;;;;;;;5.95;3.55;;;4.20;39.90;;;;;;6280819;22;20215;-79
2021/04/04 06:16:20;;;;;;;8.07;3.95;;;4.10;40.50;;;;;;6277553;22;20162;-79
2021/04/04 06:18:55;;;;;;;8.60;4.30;;;3.90;41.00;;;;;;6283368;22;20173;-79
2021/04/04 06:21:27;;;;;;;5.82;3.40;;;3.90;41.70;;;;;;6283602;22;20174;-79
2021/04/04 06:24:00;;;;;;;5.65;3.60;;;3.80;41.90;;;;;;6283350;22;20456;-79
2021/04/04 06:26:39;;;;;;;5.55;3.78;;;3.70;42.20;;;;;;6293063;22;20161;-80
2021/04/04 06:29:15;;;;;;;5.70;3.72;;;3.80;42.70;;;;;;6302614;22;20149;-85
2021/04/04 06:31:54;;;;;;;6.20;4.22;;;4.00;42.60;;;;;;6301882;22;20177;-84
2021/04/04 06:34:29;;;;;;;5.53;4.45;;;4.10;42.50;;;;;;6302184;22;20165;-82
2021/04/04 06:37:09;;;;;;;5.55;3.50;;;4.10;42.10;;;;;;6290664;22;20211;-79
2021/04/04 06:40:01;;;;;;;5.70;3.58;;;4.20;42.30;;;;;;6283944;22;20613;-78
2021/04/04 06:42:44;;;;;;;5.07;3.90;;;4.20;42.20;;;;;;6279878;22;20166;-78
2021/04/04 06:45:27;;;;;;;6.57;3.92;;;4.30;41.80;;;;;;6281832;22;20157;-79
2021/04/04 06:48:07;;;;;;;7.30;3.97;;;4.50;41.80;;;;;;6278927;22;20694;-78
2021/04/04 06:50:37;;;;;;;4.35;3.95;;;4.60;40.70;;;;;;6278682;22;20500;-78
2021/04/04 06:53:19;;;;;;;9.68;4.85;;;4.50;40.60;;;;;;6278298;22;20165;-79
2021/04/04 06:55:54;;;;;;;6.30;4.85;;;4.60;40.60;;;;;;6278323;22;20231;-78
2021/04/04 06:58:33;;;;;;;10.10;4.78;;;4.70;40.00;;;;;;6281423;22;20201;-81
2021/04/04 07:01:10;;;;;;;7.00;4.82;;;4.80;39.20;;;;;;6277663;22;20169;-78
2021/04/04 07:03:45;;;;;;;8.60;5.35;;;4.80;39.20;;;;;;6276238;22;20197;-77
2021/04/04 07:06:28;;;;;;;7.75;5.32;;;5.00;39.20;;;;;;6277123;22;20246;-78
2021/04/04 07:09:05;;;;;;;8.20;5.32;;;5.10;38.30;;;;;;6276596;22;20154;-78
2021/04/04 07:11:37;;;;;;;5.22;4.63;;;5.10;38.40;;;;;;6276712;22;20169;-78
2021/04/04 07:14:46;;;;;;;9.63;5.70;;;5.20;38.50;;;;;;6284623;22;20161;-80
2021/04/04 07:17:26;;;;;;;7.68;5.82;;;5.30;37.80;;;;;;6260231;22;20480;-79
2021/04/04 07:20:26;;;;;;;7.30;4.70;;;5.50;36.90;;;;;;6288868;22;20165;-78
2021/04/04 07:23:35;;;;;;;7.30;5.32;;;5.40;36.60;;;;;;6276820;22;20219;-79
2021/04/04 07:26:04;;;;;;;12.75;5.20;;;5.50;36.60;;;;;;6277030;22;20173;-81
2021/04/04 07:29:11;;;;;;;6.68;5.13;;;5.60;36.70;;;;;;6276552;22;20213;-78
2021/04/04 07:31:44;;;;;;;9.30;5.85;;;5.70;36.80;;;;;;6284729;22;20181;-79
2021/04/04 07:34:16;;;;;;;8.20;6.15;;;5.90;36.90;;;;;;6300853;22;20167;-83
2021/04/04 07:36:53;;;;;;;11.05;5.05;;;6.10;37.10;;;;;;6291580;22;20212;-78
2021/04/04 07:39:28;;;;;;;8.38;5.40;;;6.40;36.40;;;;;;6277582;22;20169;-81
2021/04/04 07:42:06;;;;;;;10.07;6.28;;;6.50;35.40;;;;;;6278564;22;20172;-78
2021/04/04 07:44:39;;;;;;;9.10;6.13;;;6.50;35.40;;;;;;6290508;22;20570;-79
2021/04/04 07:47:13;;;;;;;6.32;4.68;;;6.60;35.10;;;;;;6296818;22;20193;-79
2021/04/04 07:49:44;;;;;;;15.55;6.15;;;6.60;35.20;;;;;;6279691;22;20527;-79
2021/04/04 07:52:16;;;;;;;11.18;6.50;;;6.70;35.00;;;;;;6278486;22;20165;-79
2021/04/04 07:54:55;;;;;;;12.65;7.00;;;6.90;35.00;;;;;;6280176;22;20197;-79
2021/04/04 07:57:30;;;;;;;8.57;5.97;;;7.10;34.00;;;;;;6277438;22;20258;-82
2021/04/04 08:00:03;;;;;;;10.70;6.20;;;7.20;33.90;;;;;;6279755;22;20165;-79
2021/04/04 08:02:33;;;;;;;14.55;6.47;;;7.10;33.90;;;;;;6276091;22;20157;-78
2021/04/04 08:05:07;;;;;;;11.85;6.07;;;7.00;34.20;;;;;;6276949;22;20185;-78
2021/04/04 08:07:42;;;;;;;9.73;5.75;;;7.00;34.50;;;;;;6276966;22;20219;-78
2021/04/04 08:10:11;;;;;;;8.07;6.28;;;7.30;34.10;;;;;;6278765;22;20165;-81
2021/04/04 08:12:48;;;;;;;9.20;6.20;;;7.40;33.70;;;;;;6285252;22;20229;-78
2021/04/04 08:15:22;;;;;;;10.18;6.38;;;7.50;33.40;;;;;;6277948;22;20627;-78
2021/04/04 08:17:48;;;;;;;8.23;5.75;;;7.60;33.40;;;;;;6276890;22;20201;-78
2021/04/04 08:20:22;;;;;;;12.57;6.30;;;7.60;33.20;;;;;;6280167;22;20181;-79
2021/04/04 08:22:53;;;;;;;9.10;5.93;;;7.60;33.00;;;;;;6282068;22;20227;-79
2021/04/04 08:25:25;;;;;;;8.50;6.05;;;7.80;33.00;;;;;;6279308;22;20162;-79
2021/04/04 08:27:57;;;;;;;11.25;5.80;;;7.90;32.20;;;;;;6276606;22;20201;-81
2021/04/04 08:30:29;;;;;;;10.50;6.60;;;7.90;32.40;;;;;;6277077;22;20619;-79
2021/04/04 08:33:00;;;;;;;10.60;6.38;;;8.00;32.40;;;;;;6276737;22;20256;-80
2021/04/04 08:35:33;;;;;;;9.98;6.43;;;8.10;32.20;;;;;;6278036;22;20177;-79
2021/04/04 08:38:07;;;;;;;9.98;6.03;;;8.00;32.20;;;;;;6283858;22;20204;-78
2021/04/04 08:40:34;;;;;;;9.02;6.30;;;8.10;32.30;;;;;;6285605;22;20241;-81
2021/04/04 08:43:02;;;;;;;13.38;7.05;;;8.30;32.10;;;;;;6279113;22;20189;-78
2021/04/04 08:45:34;;;;;;;11.80;6.47;;;8.40;32.00;;;;;;6277478;22;20224;-78
2021/04/04 08:48:01;;;;;;;9.30;5.85;;;8.40;31.80;;;;;;6279981;22;20225;-79
2021/04/04 08:50:30;;;;;;;9.05;6.65;;;8.60;31.20;;;;;;6277995;22;20185;-81
2021/04/04 08:53:05;;;;;;;12.20;6.00;;;8.40;31.60;;;;;;6277841;22;20252;-78
2021/04/04 08:55:32;;;;;;;9.02;5.95;;;8.40;31.80;;;;;;6288880;22;20168;-81
2021/04/04 08:58:03;;;;;;;7.38;5.95;;;8.50;31.30;;;;;;6303104;22;20211;-80
2021/04/04 09:00:32;;;;;;;10.65;6.63;;;8.70;31.10;;;;;;6322630;22;20242;-80
2021/04/04 09:03:04;;;;;;;9.50;5.50;;;9.00;30.40;;;;;;6323441;22;20238;-80
2021/04/04 09:05:34;;;;;;;9.93;5.68;;;9.30;30.00;;;;;;6325389;22;20165;-81
2021/04/04 09:08:03;;;;;;;7.43;5.38;;;9.50;29.70;;;;;;6297648;22;20223;-80
2021/04/04 09:10:31;;;;;;;9.18;4.97;;;9.30;29.30;;;;;;6290897;22;20188;-81
2021/04/04 09:12:59;;;;;;;8.90;5.47;;;9.30;29.80;;;;;;6297849;22;20549;-80
2021/04/04 09:15:26;;;;;;;10.23;5.25;;;9.40;29.70;;;;;;6298089;22;20216;-80
2021/04/04 09:17:55;;;;;;;15.88;5.75;;;9.50;28.80;;;;;;6298369;22;20208;-80
2021/04/04 09:20:32;;;;;;;11.15;5.43;;;9.70;28.50;;;;;;6296409;22;20223;-82
2021/04/04 09:23:01;;;;;;;10.75;5.03;;;9.70;28.50;;;;;;6288224;22;20157;-82
2021/04/04 09:25:29;;;;;;;9.27;5.57;;;10.00;27.70;;;;;;6290680;22;20200;-82
2021/04/04 09:27:58;;;;;;;8.82;5.28;;;9.80;28.00;;;;;;6288496;22;20196;-80
2021/04/04 09:30:34;;;;;;;9.60;5.07;;;9.80;28.30;;;;;;6286356;22;20189;-81
2021/04/04 09:33:03;;;;;;;10.82;6.03;;;9.80;28.30;;;;;;6286079;22;20491;-81
2021/04/04 09:35:31;;;;;;;8.07;5.00;;;9.90;28.10;;;;;;6286569;22;20188;-80
2021/04/04 09:38:03;;;;;;;6.82;4.60;;;9.90;28.10;;;;;;6291345;22;20197;-80
2021/04/04 09:40:31;;;;;;;8.10;5.68;;;10.10;27.10;;;;;;6293004;22;20181;-81
2021/04/04 09:43:06;;;;;;;9.95;5.03;;;10.60;26.30;;;;;;6287088;22;20181;-80
2021/04/04 09:45:33;;;;;;;11.02;6.07;;;10.90;25.90;;;;;;6293358;22;20161;-81
2021/04/04 09:48:15;;;;;;;11.48;5.90;;;11.00;25.90;;;;;;6297320;22;20220;-81
2021/04/04 09:50:42;;;;;;;11.35;5.15;;;11.20;25.50;;;;;;6295834;22;20184;-82
2021/04/04 09:53:09;;;;;;;10.88;5.50;;;11.30;24.60;;;;;;6297534;22;20181;-84
2021/04/04 09:55:35;;;;;;;11.52;5.95;;;11.20;24.90;;;;;;6294771;22;20181;-82
2021/04/04 09:58:05;;;;;;;12.05;5.32;;;11.40;24.50;;;;;;6296724;22;20215;-80
2021/04/04 10:00:34;;;;;;;9.32;5.47;;;11.40;24.90;;;;;;6297069;22;20203;-81
2021/04/04 10:03:10;;;;;;;8.82;5.35;;;11.30;24.40;;;;;;6292932;22;20181;-80
2021/04/04 10:05:39;;;;;;;8.90;4.72;;;11.40;24.60;;;;;;6283191;22;20165;-82
2021/04/04 10:08:15;;;;;;;8.05;3.92;;;11.60;23.80;;;;;;6285604;22;20200;-83
2021/04/04 10:10:43;;;;;;;8.15;4.65;;;11.40;22.70;;;;;;6290850;22;20185;-82
2021/04/04 10:13:10;;;;;;;8.35;5.05;;;11.10;24.20;;;;;;6286368;22;20200;-82
2021/04/04 10:15:45;;;;;;;9.23;4.40;;;11.60;23.90;;;;;;6285626;22;20227;-81
2021/04/04 10:18:12;;;;;;;10.45;4.50;;;12.00;23.10;;;;;;6285532;22;20201;-81
2021/04/04 10:20:41;;;;;;;7.07;3.58;;;12.10;23.20;;;;;;6295824;22;20203;-82
2021/04/04 10:23:09;;;;;;;6.15;4.10;;;12.10;22.60;;;;;;6295294;22;20173;-81
2021/04/04 10:25:38;;;;;;;7.18;4.43;;;12.30;22.00;;;;;;6298636;22;20192;-82
2021/04/04 10:28:06;;;;;;;8.90;4.10;;;12.40;21.40;;;;;;6298096;22;20220;-82
2021/04/04 10:30:35;;;;;;;8.35;4.03;;;12.10;22.60;;;;;;6288172;22;20178;-81
2021/04/04 10:33:22;;;;;;;5.95;3.22;;;11.70;22.20;;;;;;6286526;22;20302;-81
2021/04/04 10:35:49;;;;;;;4.28;3.30;;;11.90;22.00;;;;;;6293072;22;20192;-82
2021/04/04 10:38:18;;;;;;;6.13;3.55;;;12.40;20.70;;;;;;6294628;22;20197;-81
2021/04/04 10:40:50;;;;;;;4.40;3.50;;;12.50;20.40;;;;;;6296077;22;20177;-81
2021/04/04 10:43:17;;;;;;;4.45;3.22;;;12.60;20.30;;;;;;6296700;22;20264;-81
2021/04/04 10:46:06;;;;;;;4.93;3.35;;;12.80;20.00;;;;;;6296153;22;20425;-81
2021/04/04 10:48:35;;;;;;;5.80;3.88;;;13.00;20.00;;;;;;6297778;22;20212;-79
2021/04/04 10:51:03;;;;;;;5.97;3.50;;;12.70;19.90;;;;;;6296777;22;20181;-82
2021/04/04 10:53:29;;;;;;;6.50;3.45;;;12.60;20.30;;;;;;6293807;22;20177;-81
2021/04/04 10:55:57;;;;;;;6.68;3.55;;;12.50;20.40;;;;;;6284573;22;20170;-83
2021/04/04 10:58:25;;;;;;;4.15;3.40;;;12.00;20.40;;;;;;6292520;22;20209;-81
2021/04/04 11:00:52;;;;;;;5.50;3.80;;;12.10;20.20;;;;;;6286079;22;20520;-81
2021/04/04 11:03:19;;;;;;;4.30;3.30;;;12.40;20.00;;;;;;6284274;22;20216;-81
2021/04/04 11:05:47;;;;;;;10.07;4.60;;;12.80;19.70;;;;;;6298314;22;20181;-80
2021/04/04 11:08:13;;;;;;;7.57;4.18;;;12.80;19.70;;;;;;6298663;22;20197;-80
2021/04/04 11:10:39;;;;;;;4.65;3.60;;;12.70;19.90;;;;;;6299530;22;20181;-80
2021/04/04 11:13:07;;;;;;;6.65;4.07;;;13.00;19.60;;;;;;6295742;22;20174;-81
2021/04/04 11:15:39;;;;;;;5.15;3.58;;;13.40;18.80;;;;;;6301013;22;20176;-81
2021/04/04 11:18:13;;;;;;;8.60;3.65;;;13.30;17.70;;;;;;6295969;22;20197;-81
2021/04/04 11:20:43;;;;;;;4.40;3.42;;;13.30;17.50;;;;;;6299367;22;20190;-80
2021/04/04 11:23:10;;;;;;;4.93;3.45;;;13.50;16.50;;;;;;6300134;22;20181;-82
2021/04/04 11:25:37;;;;;;;13.55;3.95;;;13.00;17.60;;;;;;6299225;22;20233;-81
2021/04/04 11:28:16;;;;;;;5.40;3.80;;;12.80;18.30;;;;;;6298398;22;20201;-80
2021/04/04 11:30:43;;;;;;;4.88;3.72;;;12.90;18.40;;;;;;6296477;22;20169;-81
2021/04/04 11:33:29;;;;;;;4.45;3.45;;;13.00;18.30;;;;;;6299422;22;20176;-81
2021/04/04 11:36:01;;;;;;;7.30;4.07;;;13.30;18.10;;;;;;6299197;22;20165;-81
2021/04/04 11:38:28;;;;;;;5.35;4.20;;;13.40;18.50;;;;;;6298088;22;20200;-80
2021/04/04 11:41:14;;;;;;;7.45;4.30;;;14.00;17.90;;;;;;6300857;22;20201;-80
2021/04/04 11:43:42;;;;;;;4.97;3.53;;;14.60;16.80;;;;;;6299662;22;20193;-80
2021/04/04 11:46:42;;;;;;;7.97;4.72;;;14.80;16.90;;;;;;6293886;22;20259;-80
2021/04/04 11:49:38;;;;;;;5.40;3.75;;;15.00;17.00;;;;;;6301304;22;20166;-80
2021/04/04 11:52:37;;;;;;;7.40;4.17;;;15.10;17.10;;;;;;6301341;22;20176;-81
2021/04/04 11:55:06;;;;;;;8.70;4.47;;;14.80;16.90;;;;;;6296909;22;20397;-80
2021/04/04 11:57:34;;;;;;;6.85;3.95;;;14.50;17.90;;;;;;6287367;22;20208;-80
2021/04/04 12:00:04;;;;;;;6.05;4.53;;;14.20;18.00;;;;;;6296717;22;20200;-81
2021/04/04 12:02:31;;;;;;;7.07;4.13;;;13.90;18.10;;;;;;6292118;22;20171;-80
2021/04/04 12:05:04;;;;;;;6.85;4.10;;;13.70;18.20;;;;;;6282531;22;20204;-82
2021/04/04 12:07:32;;;;;;;6.65;4.57;;;13.70;18.30;;;;;;6281023;22;20203;-81
2021/04/04 12:09:59;;;;;;;6.85;3.90;;;14.00;17.50;;;;;;6282623;22;20731;-81
2021/04/04 12:12:32;;;;;;;5.32;3.72;;;14.30;17.10;;;;;;6284772;22;20173;-81
2021/04/04 12:15:00;;;;;;;7.00;3.93;;;14.80;16.90;;;;;;6291265;22;20242;-81
2021/04/04 12:17:30;;;;;;;10.07;5.77;;;14.80;17.50;;;;;;6288328;22;20410;-80
2021/04/04 12:19:58;;;;;;;5.60;4.60;;;13.70;17.80;;;;;;6287427;22;20695;-81
2021/04/04 12:22:38;;;;;;;5.57;4.30;;;13.40;18.80;;;;;;6286513;22;20181;-82
2021/04/04 12:25:13;;;;;;;7.03;4.35;;;13.70;18.00;;;;;;6288109;22;20182;-82
2021/04/04 12:27:41;;;;;;;7.85;4.45;;;13.70;18.20;;;;;;6288553;22;20200;-80
2021/04/04 12:30:20;;;;;;;5.13;4.53;;;14.00;17.90;;;;;;6279444;22;20174;-80
2021/04/04 12:32:48;;;;;;;5.25;4.28;;;14.00;18.30;;;;;;6276968;22;20439;-80
2021/04/04 12:35:23;;;;;;;7.32;4.68;;;13.60;18.90;;;;;;6284159;22;20177;-82
2021/04/04 12:37:49;;;;;;;8.82;4.28;;;13.70;18.00;;;;;;6290948;22;20246;-82
2021/04/04 12:40:16;;;;;;;6.43;4.28;;;13.80;17.20;;;;;;6286296;22;20177;-81
2021/04/04 12:42:42;;;;;;;7.60;4.75;;;14.00;17.30;;;;;;6294522;22;20199;-82
2021/04/04 12:45:11;;;;;;;7.88;4.20;;;14.20;16.50;;;;;;6301934;22;20489;-83
2021/04/04 12:47:40;;;;;;;5.30;4.28;;;14.40;16.60;;;;;;6300554;22;20236;-79
2021/04/04 12:50:10;;;;;;;7.38;4.10;;;13.70;17.50;;;;;;6286393;22;20234;-80
2021/04/04 12:52:39;;;;;;;7.32;4.28;;;14.10;16.50;;;;;;6292752;22;20204;-80
2021/04/04 12:55:11;;;;;;;7.55;4.65;;;14.50;16.70;;;;;;6303177;22;20180;-78
2021/04/04 12:57:37;;;;;;;11.50;4.38;;;14.20;16.50;;;;;;6299359;22;20212;-78
2021/04/04 13:00:06;;;;;;;7.53;4.85;;;14.10;16.40;;;;;;6299521;22;20181;-80
2021/04/04 13:02:32;;;;;;;6.55;4.90;;;14.30;17.10;;;;;;6296259;22;20181;-80
2021/04/04 13:04:59;;;;;;;9.00;5.05;;;14.30;16.60;;;;;;6291968;22;20197;-79
2021/04/04 13:07:27;;;;;;;7.53;5.47;;;14.30;16.50;;;;;;6284432;22;20204;-81
2021/04/04 13:09:54;;;;;;;8.57;4.68;;;14.40;16.60;;;;;;6283231;22;20173;-80
2021/04/04 13:12:20;;;;;;;10.23;5.10;;;14.50;16.70;;;;;;6283785;22;20191;-80
2021/04/04 13:14:47;;;;;;;8.38;4.90;;;14.30;16.50;;;;;;6284034;22;20222;-80
2021/04/04 13:17:13;;;;;;;7.65;5.20;;;14.40;16.60;;;;;;6285749;22;20270;-80
2021/04/04 13:19:41;;;;;;;10.05;5.50;;;14.50;16.70;;;;;;6285372;22;20611;-80
2021/04/04 13:22:09;;;;;;;7.25;5.10;;;14.50;16.70;;;;;;6291114;22;20189;-80
2021/04/04 13:24:36;;;;;;;14.60;5.60;;;14.30;16.50;;;;;;6293337;22;20193;-80
2021/04/04 13:27:03;;;;;;;7.55;5.28;;;14.00;16.30;;;;;;6293410;22;20201;-80
2021/04/04 13:29:38;;;;;;;8.20;5.20;;;14.00;16.30;;;;;;6295910;22;20192;-80
2021/04/04 13:32:06;;;;;;;7.10;4.78;;;14.10;16.40;;;;;;6293504;22;20221;-80
2021/04/04 13:34:38;;;;;;;9.73;5.53;;;14.30;16.30;;;;;;6296919;22;20191;-81
2021/04/04 13:37:06;;;;;;;7.75;5.35;;;14.30;16.50;;;;;;6295848;22;20212;-80
2021/04/04 13:39:37;;;;;;;7.80;5.45;;;14.00;16.30;;;;;;6297055;22;20189;-81
2021/04/04 13:42:06;;;;;;;12.13;5.28;;;13.90;16.30;;;;;;6295166;22;20157;-81
2021/04/04 13:44:41;;;;;;;6.80;5.50;;;13.90;16.30;;;;;;6292503;22;20201;-81
2021/04/04 13:47:19;;;;;;;9.77;6.05;;;13.90;16.30;;;;;;6292176;22;20204;-81
2021/04/04 13:49:46;;;;;;;6.57;5.85;;;13.80;16.20;;;;;;6292076;22;20185;-81
2021/04/04 13:52:14;;;;;;;10.05;5.53;;;14.10;16.40;;;;;;6284422;22;20635;-80
2021/04/04 13:54:42;;;;;;;7.10;5.38;;;14.30;16.50;;;;;;6294301;22;20453;-82
2021/04/04 13:57:11;;;;;;;11.20;5.80;;;14.10;16.40;;;;;;6289176;22;20205;-80
2021/04/04 13:59:47;;;;;;;8.02;5.55;;;14.00;16.30;;;;;;6285071;22;20180;-80
2021/04/04 14:02:19;;;;;;;10.55;5.40;;;14.20;16.50;;;;;;6285200;22;20247;-80
2021/04/04 14:04:45;;;;;;;6.95;5.55;;;14.40;16.60;;;;;;6284232;22;20281;-79
2021/04/04 14:07:14;;;;;;;9.45;6.13;;;14.50;16.30;;;;;;6285588;22;20200;-80
2021/04/04 14:09:43;;;;;;;7.30;5.60;;;14.40;16.60;;;;;;6282736;22;20181;-80
2021/04/04 14:12:12;;;;;;;10.30;6.03;;;14.40;16.60;;;;;;6284546;22;20173;-80
2021/04/04 14:14:40;;;;;;;7.60;5.60;;;14.20;16.50;;;;;;6283390;22;20177;-81
2021/04/04 14:17:07;;;;;;;10.63;6.57;;;14.30;16.50;;;;;;6285125;22;20220;-80
2021/04/04 14:19:34;;;;;;;6.90;5.70;;;14.30;16.60;;;;;;6292640;22;20188;-80
2021/04/04 14:22:03;;;;;;;9.73;6.20;;;14.30;16.50;;;;;;6285259;22;20689;-81
2021/04/04 14:24:30;;;;;;;10.45;5.47;;;14.40;16.30;;;;;;6291471;22;20655;-83
2021/04/04 14:26:57;;;;;;;8.25;5.45;;;14.30;16.00;;;;;;6293905;22;20201;-81
2021/04/04 14:29:24;;;;;;;9.90;5.70;;;14.50;16.20;;;;;;6287248;22;20219;-80
2021/04/04 14:31:51;;;;;;;9.27;6.18;;;14.70;15.60;;;;;;6280642;22;20303;-81
2021/04/04 14:34:19;;;;;;;6.95;5.60;;;14.60;15.60;;;;;;6282721;22;20173;-82
2021/04/04 14:36:46;;;;;;;8.68;5.45;;;14.40;15.50;;;;;;6287266;22;20614;-82
2021/04/04 14:39:12;;;;;;;10.40;5.63;;;14.50;15.80;;;;;;6289350;22;20291;-79
2021/04/04 14:41:39;;;;;;;8.95;6.15;;;14.70;15.30;;;;;;6284142;22;20524;-79
2021/04/04 14:44:13;;;;;;;7.60;4.93;;;14.80;15.00;;;;;;6283054;22;20208;-79
2021/04/04 14:46:40;;;;;;;8.68;4.97;;;14.70;14.70;;;;;;6290786;22;20196;-81
2021/04/04 14:49:07;;;;;;;8.17;4.87;;;14.80;14.60;;;;;;6293225;22;20236;-78
2021/04/04 14:51:33;;;;;;;6.35;5.63;;;14.90;14.40;;;;;;6299302;22;20390;-79
2021/04/04 14:54:00;;;;;;;9.25;5.40;;;14.90;14.00;;;;;;6299843;22;20193;-81
2021/04/04 14:56:26;;;;;;;9.40;5.80;;;14.80;14.10;;;;;;6282628;22;20209;-81
2021/04/04 14:58:53;;;;;;;8.77;5.83;;;14.80;13.80;;;;;;6305685;22;20528;-79
2021/04/04 15:01:20;;;;;;;11.70;5.30;;;14.70;13.90;;;;;;6313783;22;20717;-79
2021/04/04 15:03:47;;;;;;;7.77;5.17;;;14.70;14.00;;;;;;6311346;22;20441;-79
2021/04/04 15:06:13;;;;;;;9.70;5.20;;;14.80;14.20;;;;;;6309951;22;20703;-79
2021/04/04 15:08:40;;;;;;;9.05;5.25;;;14.90;14.10;;;;;;6287708;22;20451;-80
2021/04/04 15:11:07;;;;;;;10.60;5.80;;;15.00;14.40;;;;;;6279857;22;20196;-81
2021/04/04 15:13:34;;;;;;;11.75;5.68;;;15.00;14.60;;;;;;6278463;22;20418;-80
2021/04/04 15:16:00;;;;;;;8.18;5.75;;;15.10;14.60;;;;;;6279416;22;20437;-80
2021/04/04 15:18:28;;;;;;;8.25;5.32;;;15.00;14.80;;;;;;6278384;22;20197;-80
2021/04/04 15:20:55;;;;;;;10.57;5.15;;;14.70;15.20;;;;;;6279090;22;20177;-80